createdAt,value
2018-08-24T00:00:34.591Z,70.10
2018-08-24T00:03:03.586Z,70.00
2018-08-24T00:05:32.748Z,70.10
2018-08-24T00:08:02.314Z,70.50
2018-08-24T00:10:31.724Z,70.50
2018-08-24T00:13:00.977Z,70.60
2018-08-24T00:15:30.090Z,70.60
2018-08-24T00:17:59.266Z,70.70
2018-08-24T00:20:28.401Z,71.00
2018-08-24T00:22:57.872Z,71.10
2018-08-24T00:25:27.011Z,71.40
2018-08-24T00:27:55.783Z,71.40
2018-08-24T00:30:24.901Z,71.50
2018-08-24T00:32:53.777Z,71.50
2018-08-24T00:35:22.628Z,71.70
2018-08-24T00:37:52.105Z,71.70
2018-08-24T00:40:20.952Z,71.70
2018-08-24T00:42:50.119Z,71.70
2018-08-24T00:45:19.062Z,71.80
2018-08-24T00:47:48.210Z,71.90
2018-08-24T00:50:17.396Z,72.50
2018-08-24T00:52:46.908Z,72.50
2018-08-24T00:55:16.119Z,72.40
2018-08-24T00:57:45.553Z,72.00
2018-08-24T01:00:14.555Z,71.90
2018-08-24T01:02:43.802Z,72.20
2018-08-24T01:05:13.301Z,72.30
2018-08-24T01:07:48.248Z,72.80
2018-08-24T01:10:22.531Z,73.80
2018-08-24T01:12:51.352Z,73.50
2018-08-24T01:15:20.814Z,73.50
2018-08-24T01:17:55.065Z,74.20
2018-08-24T01:20:28.223Z,74.80
2018-08-24T01:22:57.255Z,75.00
2018-08-24T01:25:26.387Z,75.20
2018-08-24T01:27:55.381Z,75.50
2018-08-24T01:30:24.727Z,76.00
2018-08-24T01:32:54.056Z,76.70
2018-08-24T01:35:23.044Z,76.60
2018-08-24T01:37:51.912Z,76.80
2018-08-24T01:40:21.009Z,76.80
2018-08-24T01:42:50.263Z,76.70
2018-08-24T01:45:19.821Z,77.30
2018-08-24T01:47:48.732Z,77.30
2018-08-24T01:50:17.850Z,77.70
2018-08-24T01:52:47.641Z,78.50
2018-08-24T01:55:16.834Z,79.20
2018-08-24T01:57:45.695Z,79.30
2018-08-24T02:00:15.428Z,79.60
2018-08-24T02:02:46.380Z,79.90
2018-08-24T02:05:15.162Z,79.60
2018-08-24T02:07:43.955Z,80.50
2018-08-24T02:10:18.565Z,80.50
2018-08-24T02:12:52.896Z,80.50
2018-08-24T02:15:23.242Z,81.30
2018-08-24T02:19:01.227Z,80.20
2018-08-24T02:21:35.685Z,80.30
2018-08-24T02:24:04.781Z,80.30
2018-08-24T02:26:33.594Z,80.80
2018-08-24T02:29:02.909Z,81.60
2018-08-24T02:31:36.494Z,81.60
2018-08-24T02:34:05.625Z,82.50
2018-08-24T02:36:34.434Z,82.90
2018-08-24T02:39:04.394Z,83.20
2018-08-24T02:41:33.204Z,83.40
2018-08-24T02:44:02.007Z,83.60
2018-08-24T02:46:31.621Z,84.50
2018-08-24T02:49:01.105Z,83.70
2018-08-24T02:51:31.352Z,83.70
2018-08-24T02:54:01.261Z,84.00
2018-08-24T02:56:30.961Z,84.20
2018-08-24T02:59:00.509Z,84.20
2018-08-24T03:01:29.670Z,84.90
2018-08-24T03:03:58.593Z,84.40
2018-08-24T03:06:28.406Z,84.70
2018-08-24T03:09:00.892Z,84.60
2018-08-24T03:11:30.683Z,84.30
2018-08-24T03:14:00.071Z,84.20
2018-08-24T03:16:29.338Z,83.70
2018-08-24T03:18:58.656Z,83.10
2018-08-24T03:21:27.530Z,83.20
2018-08-24T03:23:56.927Z,83.30
2018-08-24T03:26:26.307Z,83.00
2018-08-24T03:28:55.127Z,82.30
2018-08-24T03:31:24.290Z,81.90
2018-08-24T03:33:53.358Z,81.60
2018-08-24T03:36:22.454Z,81.30
2018-08-24T03:38:51.599Z,82.00
2018-08-24T03:41:20.731Z,82.30
2018-08-24T03:43:49.812Z,82.10
2018-08-24T03:46:19.189Z,81.30
2018-08-24T03:48:48.467Z,81.80
2018-08-24T03:51:17.483Z,81.80
2018-08-24T03:53:46.940Z,81.50
2018-08-24T03:56:16.382Z,81.60
2018-08-24T03:58:45.723Z,81.70
2018-08-24T04:01:14.961Z,81.90
2018-08-24T04:03:44.165Z,81.50
2018-08-24T04:06:13.244Z,81.20
2018-08-24T04:08:42.196Z,80.30
2018-08-24T04:11:11.475Z,79.80
2018-08-24T04:13:40.539Z,79.60
2018-08-24T04:16:09.833Z,79.30
2018-08-24T04:18:38.766Z,78.50
2018-08-24T04:21:07.514Z,77.80
2018-08-24T04:23:36.314Z,77.40
2018-08-24T04:26:05.521Z,76.40
2018-08-24T04:28:34.360Z,75.50
2018-08-24T04:31:03.895Z,75.20
2018-08-24T04:33:33.108Z,75.50
2018-08-24T04:36:02.304Z,75.40
2018-08-24T04:38:31.081Z,74.60
2018-08-24T04:40:59.847Z,74.20
2018-08-24T04:43:28.960Z,74.10
2018-08-24T04:45:58.116Z,73.30
2018-08-24T04:48:26.994Z,73.70
2018-08-24T04:50:56.162Z,73.70
2018-08-24T04:53:25.637Z,72.50
2018-08-24T04:55:55.037Z,73.10
2018-08-24T04:58:24.945Z,73.50
2018-08-24T05:00:54.371Z,73.20
2018-08-24T05:03:24.037Z,73.90
2018-08-24T05:05:53.487Z,75.10
2018-08-24T05:08:22.951Z,75.00
2018-08-24T05:10:51.990Z,75.20
2018-08-24T05:13:21.809Z,74.60
2018-08-24T05:15:50.975Z,74.50
2018-08-24T05:18:19.917Z,74.70
2018-08-24T05:20:48.728Z,75.20
2018-08-24T05:23:18.110Z,75.80
2018-08-24T05:25:47.358Z,75.40
2018-08-24T05:28:16.287Z,75.70
2018-08-24T05:30:45.679Z,75.40
2018-08-24T05:33:14.498Z,75.60
2018-08-24T05:35:43.331Z,75.70
2018-08-24T05:38:12.291Z,76.40
2018-08-24T05:40:41.459Z,77.10
2018-08-24T05:43:10.256Z,76.30
2018-08-24T05:45:39.049Z,75.50
2018-08-24T05:48:08.405Z,74.80
2018-08-24T05:50:37.181Z,75.10
2018-08-24T05:53:07.090Z,75.00
2018-08-24T05:55:36.629Z,73.80
2018-08-24T05:58:06.285Z,73.50
2018-08-24T06:00:38.997Z,73.60
2018-08-24T06:03:09.113Z,73.30
2018-08-24T06:05:44.420Z,72.70
2018-08-24T06:08:13.324Z,72.80
2018-08-24T06:10:42.787Z,73.30
2018-08-24T06:13:15.908Z,73.60
2018-08-24T06:15:45.412Z,74.70
2018-08-24T06:18:14.721Z,75.90
2018-08-24T06:20:44.500Z,74.90
2018-08-24T06:23:14.375Z,74.00
2018-08-24T06:25:43.683Z,73.40
2018-08-24T06:28:31.422Z,73.10
2018-08-24T06:31:04.419Z,73.00
2018-08-24T06:33:56.213Z,72.00
2018-08-24T06:36:58.708Z,72.10
2018-08-24T06:39:54.866Z,71.40
2018-08-24T06:42:33.494Z,72.60
2018-08-24T06:45:07.838Z,74.00
2018-08-24T06:47:37.487Z,73.40
2018-08-24T06:50:07.460Z,75.00
2018-08-24T06:52:39.141Z,75.70
2018-08-24T06:55:08.517Z,75.00
2018-08-24T06:57:37.966Z,74.30
2018-08-24T07:00:08.089Z,73.50
2018-08-24T07:02:39.619Z,72.80
2018-08-24T07:05:10.035Z,71.70
2018-08-24T07:10:51.021Z,70.90
2018-08-24T07:13:20.261Z,70.40
2018-08-24T07:15:49.387Z,68.20
2018-08-24T07:18:18.706Z,66.60
2018-08-24T07:20:48.242Z,64.20
2018-08-24T07:23:17.650Z,61.20
2018-08-24T07:25:48.474Z,61.50
2018-08-24T07:28:17.984Z,62.50
2018-08-24T07:30:47.522Z,63.30
2018-08-24T07:33:17.536Z,61.70
2018-08-24T07:35:47.607Z,63.00
2018-08-24T07:38:17.267Z,63.10
2018-08-24T07:40:46.542Z,59.20
2018-08-24T07:43:16.754Z,51.20
2018-08-24T07:45:46.726Z,51.40
2018-08-24T07:48:16.264Z,54.60
2018-08-24T07:50:46.323Z,57.10
2018-08-24T07:53:16.505Z,56.90
2018-08-24T07:55:46.176Z,56.50
2018-08-24T07:58:15.726Z,56.30
2018-08-24T08:00:45.264Z,55.30
2018-08-24T08:03:15.268Z,52.80
2018-08-24T08:05:44.651Z,57.20
2018-08-24T08:08:13.926Z,59.70
2018-08-24T08:10:42.850Z,61.10
2018-08-24T08:13:12.505Z,63.60
2018-08-24T08:15:41.699Z,63.10
2018-08-24T08:18:14.745Z,63.30
2018-08-24T08:20:44.554Z,63.40
2018-08-24T08:23:14.586Z,64.00
2018-08-24T08:25:44.273Z,64.60
2018-08-24T08:28:13.337Z,66.30
2018-08-24T08:30:42.905Z,69.70
2018-08-24T08:33:13.303Z,71.40
2018-08-24T08:35:42.267Z,73.00
2018-08-24T08:38:11.452Z,74.20
2018-08-24T08:40:41.553Z,74.60
2018-08-24T08:43:11.479Z,74.70
2018-08-24T08:45:40.969Z,74.30
2018-08-24T08:48:11.250Z,74.80
2018-08-24T08:50:40.438Z,73.80
2018-08-24T08:53:11.033Z,70.40
2018-08-24T08:55:40.921Z,67.20
2018-08-24T08:58:10.372Z,57.70
2018-08-24T09:00:39.703Z,54.70
2018-08-24T09:03:09.232Z,54.40
2018-08-24T09:05:38.700Z,58.70
2018-08-24T09:08:08.420Z,58.40
2018-08-24T09:10:37.848Z,55.30
2018-08-24T09:13:07.790Z,53.60
2018-08-24T09:15:36.917Z,54.40
2018-08-24T09:18:12.677Z,56.00
2018-08-24T09:20:47.829Z,55.80
2018-08-24T09:23:22.575Z,55.50
2018-08-24T09:25:57.870Z,55.60
2018-08-24T09:28:36.241Z,55.60
2018-08-24T09:31:13.485Z,55.60
2018-08-24T09:33:46.535Z,58.30
2018-08-24T09:36:18.633Z,56.70
2018-08-24T09:38:48.794Z,56.00
2018-08-24T09:41:18.527Z,56.20
2018-08-24T09:43:53.168Z,56.10
2018-08-24T09:46:27.876Z,56.00
2018-08-24T09:49:02.700Z,55.70
2018-08-24T09:51:33.105Z,56.80
2018-08-24T09:54:09.391Z,55.90
2018-08-24T09:56:40.825Z,56.20
2018-08-24T09:59:12.390Z,57.10
2018-08-24T10:01:47.538Z,58.20
2018-08-24T10:04:22.213Z,59.00
2018-08-24T10:06:56.580Z,60.50
2018-08-24T10:09:25.683Z,59.10
2018-08-24T10:11:54.557Z,58.80
2018-08-24T10:14:24.613Z,59.80
2018-08-24T10:16:53.614Z,60.90
2018-08-24T10:19:22.442Z,61.00
2018-08-24T10:21:51.657Z,60.20
2018-08-24T10:24:22.495Z,60.60
2018-08-24T10:26:52.220Z,60.70
2018-08-24T10:29:21.629Z,61.40
2018-08-24T10:31:50.965Z,61.90
2018-08-24T10:34:20.633Z,64.40
2018-08-24T10:36:50.526Z,64.30
2018-08-24T10:39:19.827Z,64.50
2018-08-24T10:41:49.123Z,65.00
2018-08-24T10:44:18.920Z,65.10
2018-08-24T10:46:48.585Z,65.50
2018-08-24T10:49:19.943Z,65.30
2018-08-24T10:51:49.884Z,64.30
2018-08-24T10:54:19.348Z,64.20
2018-08-24T10:56:49.065Z,63.80
2018-08-24T10:59:18.346Z,63.10
2018-08-24T11:01:48.757Z,62.40
2018-08-24T11:04:18.854Z,62.30
2018-08-24T11:06:48.380Z,61.40
2018-08-24T11:09:18.072Z,63.30
2018-08-24T11:11:48.608Z,63.60
2018-08-24T11:14:18.260Z,63.30
2018-08-24T11:16:48.393Z,62.10
2018-08-24T11:19:18.224Z,62.20
2018-08-24T11:21:47.758Z,63.80
2018-08-24T11:24:17.000Z,63.50
2018-08-24T11:26:46.167Z,63.10
2018-08-24T11:29:15.319Z,62.50
2018-08-24T11:31:44.585Z,59.60
2018-08-24T11:34:13.467Z,59.00
2018-08-24T11:36:42.920Z,57.80
2018-08-24T11:39:11.994Z,55.00
2018-08-24T11:41:41.147Z,55.30
2018-08-24T11:44:10.598Z,57.40
2018-08-24T11:46:39.730Z,56.60
2018-08-24T11:49:09.204Z,56.60
2018-08-24T11:51:39.963Z,58.80
2018-08-24T11:54:09.255Z,59.30
2018-08-24T11:56:38.962Z,58.00
2018-08-24T11:59:08.439Z,58.50
2018-08-24T12:01:38.580Z,58.00
2018-08-24T12:04:09.536Z,56.40
2018-08-24T12:06:39.332Z,56.20
2018-08-24T12:09:10.724Z,56.00
2018-08-24T12:11:40.865Z,56.00
2018-08-24T12:14:10.324Z,55.60
2018-08-24T12:16:42.220Z,55.00
2018-08-24T12:19:13.293Z,55.50
2018-08-24T12:21:43.266Z,56.20
2018-08-24T12:24:14.661Z,55.90
2018-08-24T12:26:44.220Z,55.90
2018-08-24T12:29:15.396Z,55.30
2018-08-24T12:31:44.997Z,55.20
2018-08-24T12:34:13.940Z,54.80
2018-08-24T12:36:42.906Z,55.30
2018-08-24T12:39:13.291Z,56.10
2018-08-24T12:41:42.509Z,55.70
2018-08-24T12:44:13.498Z,53.50
2018-08-24T12:46:43.135Z,53.50
2018-08-24T12:49:14.216Z,53.60
2018-08-24T12:51:43.777Z,54.20
2018-08-24T12:54:12.751Z,53.40
2018-08-24T12:56:42.421Z,52.30
2018-08-24T12:59:11.699Z,52.10
2018-08-24T13:01:41.485Z,52.70
2018-08-24T13:04:11.870Z,52.30
2018-08-24T13:06:42.182Z,52.70
2018-08-24T13:09:13.202Z,51.90
2018-08-24T13:11:43.720Z,51.60
2018-08-24T13:14:13.388Z,53.00
2018-08-24T13:16:42.908Z,52.10
2018-08-24T13:19:12.475Z,51.50
2018-08-24T13:21:43.247Z,51.10
2018-08-24T13:24:13.354Z,51.80
2018-08-24T13:26:43.665Z,52.00
2018-08-24T13:29:13.605Z,51.10
2018-08-24T13:31:43.497Z,51.10
2018-08-24T13:34:14.909Z,51.70
2018-08-24T13:36:44.897Z,52.00
2018-08-24T13:39:14.568Z,51.60
2018-08-24T13:41:45.099Z,51.90
2018-08-24T13:44:15.218Z,52.50
2018-08-24T13:46:45.780Z,53.10
2018-08-24T13:49:15.068Z,53.70
2018-08-24T13:51:44.924Z,53.90
2018-08-24T13:54:14.946Z,53.50
2018-08-24T13:56:51.581Z,53.20
2018-08-24T13:59:21.606Z,53.20
2018-08-24T14:01:51.396Z,54.20
2018-08-24T14:04:22.736Z,54.10
2018-08-24T14:06:52.731Z,55.30
2018-08-24T14:09:22.290Z,54.70
2018-08-24T14:11:52.678Z,54.30
2018-08-24T14:14:22.102Z,54.50
2018-08-24T14:16:51.581Z,54.90
2018-08-24T14:19:21.152Z,54.60
2018-08-24T14:21:50.697Z,54.10
2018-08-24T14:24:20.336Z,55.00
2018-08-24T14:26:50.819Z,54.40
2018-08-24T14:29:20.662Z,54.20
2018-08-24T14:31:56.918Z,53.90
2018-08-24T14:34:27.121Z,53.70
2018-08-24T14:36:56.861Z,53.50
2018-08-24T14:39:26.775Z,52.20
2018-08-24T14:41:55.945Z,51.80
2018-08-24T14:44:25.373Z,52.30
2018-08-24T14:46:55.046Z,51.50
2018-08-24T14:49:25.375Z,52.60
2018-08-24T14:51:55.183Z,51.60
2018-08-24T14:54:24.734Z,50.80
2018-08-24T14:56:54.821Z,50.60
2018-08-24T14:59:24.702Z,50.10
2018-08-24T15:01:54.477Z,50.20
2018-08-24T15:04:24.727Z,50.80
2018-08-24T15:06:54.685Z,50.40
2018-08-24T15:09:23.972Z,50.30
2018-08-24T15:11:53.785Z,50.20
2018-08-24T15:14:22.679Z,51.20
2018-08-24T15:16:52.410Z,52.90
2018-08-24T15:19:21.440Z,49.40
2018-08-24T15:21:50.799Z,51.50
2018-08-24T15:24:19.796Z,49.50
2018-08-24T15:26:49.169Z,49.80
2018-08-24T15:29:18.405Z,49.70
2018-08-24T15:31:48.097Z,50.10
2018-08-24T15:34:17.400Z,49.40
2018-08-24T15:36:46.928Z,49.40
2018-08-24T15:39:20.957Z,50.00
2018-08-24T15:41:50.504Z,50.60
2018-08-24T15:44:19.877Z,50.70
2018-08-24T15:46:48.758Z,50.80
2018-08-24T15:49:18.367Z,52.10
2018-08-24T15:51:47.825Z,51.50
2018-08-24T15:54:17.097Z,51.90
2018-08-24T15:56:46.139Z,51.60
2018-08-24T15:59:15.782Z,52.30
2018-08-24T16:01:45.581Z,52.50
2018-08-24T16:04:16.057Z,53.20
2018-08-24T16:06:45.223Z,53.00
2018-08-24T16:09:14.910Z,54.20
2018-08-24T16:11:43.906Z,54.40
2018-08-24T16:14:13.933Z,53.10
2018-08-24T16:16:44.112Z,52.20
2018-08-24T16:19:14.106Z,53.50
2018-08-24T16:21:43.674Z,52.00
2018-08-24T16:24:12.760Z,52.40
2018-08-24T16:26:42.320Z,52.70
2018-08-24T16:29:12.118Z,53.30
2018-08-24T16:31:41.796Z,53.30
2018-08-24T16:34:11.736Z,54.10
2018-08-24T16:36:41.769Z,53.40
2018-08-24T16:39:11.474Z,52.50
2018-08-24T16:41:41.492Z,53.90
2018-08-24T16:44:11.294Z,53.60
2018-08-24T16:46:42.119Z,53.40
2018-08-24T16:49:11.985Z,53.50
2018-08-24T16:51:41.804Z,53.90
2018-08-24T16:54:11.571Z,53.50
2018-08-24T16:56:40.941Z,53.80
2018-08-24T16:59:10.290Z,53.70
2018-08-24T17:01:40.910Z,54.40
2018-08-24T17:04:10.685Z,54.70
2018-08-24T17:06:40.526Z,54.10
2018-08-24T17:09:11.377Z,54.70
2018-08-24T17:11:41.407Z,54.20
2018-08-24T17:14:11.332Z,53.90
2018-08-24T17:16:40.795Z,53.90
2018-08-24T17:19:10.260Z,53.80
2018-08-24T17:21:39.986Z,53.40
2018-08-24T17:24:09.426Z,53.30
2018-08-24T17:26:39.170Z,53.50
2018-08-24T17:29:09.100Z,54.20
2018-08-24T17:31:40.703Z,54.30
2018-08-24T17:34:10.391Z,54.20
2018-08-24T17:36:39.325Z,55.40
2018-08-24T17:39:10.637Z,54.50
2018-08-24T17:41:40.316Z,54.50
2018-08-24T17:44:09.924Z,54.40
2018-08-24T17:46:39.536Z,53.90
2018-08-24T17:49:08.981Z,55.30
2018-08-24T17:51:38.045Z,53.90
2018-08-24T17:54:07.266Z,54.10
2018-08-24T17:56:37.592Z,52.70
2018-08-24T17:59:07.961Z,52.70
2018-08-24T18:01:38.091Z,53.50
2018-08-24T18:04:07.898Z,53.50
2018-08-24T18:06:37.740Z,53.00
2018-08-24T18:09:09.814Z,53.00
2018-08-24T18:11:40.255Z,53.50
2018-08-24T18:14:10.277Z,52.90
2018-08-24T18:16:39.992Z,53.30
2018-08-24T18:19:10.296Z,53.40
2018-08-24T18:21:39.753Z,53.00
2018-08-24T18:24:14.636Z,53.90
2018-08-24T18:26:43.732Z,53.60
2018-08-24T18:29:12.659Z,54.30
2018-08-24T18:31:42.231Z,55.00
2018-08-24T18:34:11.069Z,55.20
2018-08-24T18:36:40.575Z,54.80
2018-08-24T18:39:11.870Z,54.70
2018-08-24T18:41:41.308Z,55.10
2018-08-24T18:44:11.007Z,55.20
2018-08-24T18:46:40.786Z,55.50
2018-08-24T18:49:10.066Z,55.30
2018-08-24T18:51:41.000Z,55.40
2018-08-24T18:54:11.148Z,56.30
2018-08-24T18:56:42.736Z,55.70
2018-08-24T18:59:12.424Z,56.10
2018-08-24T19:01:42.296Z,56.10
2018-08-24T19:04:12.549Z,55.30
2018-08-24T19:06:43.432Z,56.10
2018-08-24T19:09:13.083Z,56.70
2018-08-24T19:11:47.786Z,56.20
2018-08-24T19:14:16.720Z,56.00
2018-08-24T19:16:45.936Z,56.10
2018-08-24T19:19:20.546Z,56.30
2018-08-24T19:21:50.640Z,56.60
2018-08-24T19:24:20.108Z,55.90
2018-08-24T19:26:49.338Z,56.40
2018-08-24T19:29:23.905Z,56.00
2018-08-24T19:31:53.167Z,56.20
2018-08-24T19:34:22.425Z,56.40
2018-08-24T19:36:51.418Z,56.10
2018-08-24T19:39:21.117Z,56.20
2018-08-24T19:41:56.407Z,56.50
2018-08-24T19:44:25.402Z,56.40
2018-08-24T19:46:54.616Z,56.70
2018-08-24T19:49:23.697Z,56.20
2018-08-24T19:51:53.224Z,57.40
2018-08-24T19:54:22.775Z,57.20
2018-08-24T19:56:52.286Z,57.80
2018-08-24T19:59:21.340Z,58.10
2018-08-24T20:01:51.623Z,57.70
2018-08-24T20:04:20.968Z,58.10
2018-08-24T20:06:55.578Z,58.20
2018-08-24T20:09:30.047Z,58.30
2018-08-24T20:11:59.181Z,57.90
2018-08-24T20:14:33.581Z,58.10
2018-08-24T20:17:08.528Z,57.90
2018-08-24T20:19:38.206Z,58.00
2018-08-24T20:22:09.308Z,58.90
2018-08-24T20:24:38.885Z,58.10
2018-08-24T20:27:08.169Z,58.40
2018-08-24T20:29:37.983Z,58.10
2018-08-24T20:32:08.398Z,58.20
2018-08-24T20:34:38.084Z,58.30
2018-08-24T20:37:07.939Z,58.60
2018-08-24T20:39:37.867Z,58.50
2018-08-24T20:42:07.723Z,58.40
2018-08-24T20:44:37.152Z,58.20
2018-08-24T20:47:06.990Z,58.50
2018-08-24T20:49:36.967Z,58.50
2018-08-24T20:52:06.258Z,58.60
2018-08-24T20:54:36.092Z,58.90
2018-08-24T20:57:06.942Z,59.10
2018-08-24T20:59:36.810Z,58.70
2018-08-24T21:02:07.956Z,58.70
2018-08-24T21:04:38.098Z,58.90
2018-08-24T21:07:08.963Z,59.30
2018-08-24T21:09:38.533Z,59.20
2018-08-24T21:12:08.619Z,59.50
2018-08-24T21:14:38.817Z,59.30
2018-08-24T21:17:09.590Z,59.10
2018-08-24T21:19:38.992Z,59.60
2018-08-24T21:22:09.301Z,59.70
2018-08-24T21:24:38.835Z,59.20
2018-08-24T21:27:08.128Z,59.70
2018-08-24T21:29:37.513Z,60.70
2018-08-24T21:32:07.433Z,60.10
2018-08-24T21:34:36.820Z,60.20
2018-08-24T21:37:07.398Z,59.80
2018-08-24T21:39:37.667Z,60.40
2018-08-24T21:42:08.069Z,60.70
2018-08-24T21:44:38.198Z,60.30
2018-08-24T21:47:08.583Z,60.20
2018-08-24T21:49:38.395Z,60.40
2018-08-24T21:52:08.191Z,60.60
2018-08-24T21:54:38.130Z,60.20
2018-08-24T21:57:07.797Z,59.50
2018-08-24T21:59:38.242Z,58.20
2018-08-24T22:02:08.061Z,57.90
2018-08-24T22:04:39.220Z,57.60
2018-08-24T22:07:08.973Z,57.10
2018-08-24T22:09:38.328Z,56.90
2018-08-24T22:12:08.327Z,55.00
2018-08-24T22:14:37.781Z,55.50
2018-08-24T22:17:07.156Z,57.00
2018-08-24T22:19:36.213Z,54.90
2018-08-24T22:22:07.606Z,55.80
2018-08-24T22:24:37.413Z,56.10
2018-08-24T22:27:08.305Z,56.60
2018-08-24T22:29:38.293Z,55.10
2018-08-24T22:32:08.561Z,54.40
2018-08-24T22:34:38.152Z,54.10
2018-08-24T22:37:07.610Z,54.40
2018-08-24T22:39:37.865Z,55.10
2018-08-24T22:42:07.770Z,54.50
2018-08-24T22:44:38.050Z,54.30
2018-08-24T22:47:07.583Z,54.70
2018-08-24T22:49:36.564Z,53.00
2018-08-24T22:52:06.590Z,53.50
2018-08-24T22:54:36.141Z,55.10
2018-08-24T22:57:06.154Z,53.00
2018-08-24T22:59:36.354Z,53.70
2018-08-24T23:02:05.549Z,54.70
2018-08-24T23:04:35.721Z,53.10
2018-08-24T23:07:05.636Z,53.50
2018-08-24T23:09:34.920Z,54.90
2018-08-24T23:12:05.218Z,54.00
2018-08-24T23:14:35.108Z,53.60
2018-08-24T23:17:04.734Z,53.70
2018-08-24T23:19:36.093Z,53.30
2018-08-24T23:22:05.942Z,53.10
2018-08-24T23:24:36.143Z,53.30
2018-08-24T23:27:06.959Z,52.90
2018-08-24T23:29:36.272Z,53.50
2018-08-24T23:32:06.459Z,54.00
2018-08-24T23:34:37.110Z,53.10
2018-08-24T23:37:07.239Z,53.30
2018-08-24T23:39:37.116Z,53.40
2018-08-24T23:42:07.636Z,53.00
2018-08-24T23:44:37.900Z,54.30
2018-08-24T23:47:07.223Z,53.60
2018-08-24T23:49:38.160Z,53.90
2018-08-24T23:52:07.627Z,53.30
2018-08-24T23:54:37.184Z,52.90
2018-08-24T23:57:07.566Z,53.10
2018-08-24T23:59:37.479Z,53.30
